createdAt,value
2022-08-10T00:00:58.132Z,5.80
2022-08-10T00:03:27.651Z,4.70
2022-08-10T00:05:56.759Z,4.40
2022-08-10T00:08:25.459Z,4.90
2022-08-10T00:10:55.533Z,4.10
2022-08-10T00:13:28.664Z,4.50
2022-08-10T00:15:58.256Z,4.10
2022-08-10T00:18:35.149Z,4.00
2022-08-10T00:21:07.606Z,3.60
2022-08-10T00:23:37.577Z,3.20
2022-08-10T00:26:10.312Z,2.90
2022-08-10T00:28:39.178Z,3.00
2022-08-10T00:31:08.798Z,2.70
2022-08-10T00:33:37.186Z,2.60
2022-08-10T00:36:05.839Z,2.60
2022-08-10T00:38:37.009Z,2.50
2022-08-10T00:41:05.866Z,2.70
2022-08-10T00:43:35.333Z,2.70
2022-08-10T00:46:04.669Z,2.40
2022-08-10T00:48:36.487Z,2.30
2022-08-10T00:51:06.832Z,2.40
2022-08-10T00:53:37.507Z,2.60
2022-08-10T00:57:07.871Z,2.70
2022-08-10T00:58:56.277Z,2.70
2022-08-10T01:02:08.246Z,2.40
2022-08-10T01:04:57.550Z,2.60
2022-08-10T01:07:23.294Z,2.30
2022-08-10T01:10:25.794Z,2.70
2022-08-10T01:13:08.096Z,2.80
2022-08-10T01:16:05.352Z,2.70
2022-08-10T01:18:50.056Z,3.10
2022-08-10T01:21:54.055Z,3.70
2022-08-10T01:24:45.159Z,5.20
2022-08-10T01:27:28.915Z,5.00
2022-08-10T01:30:09.098Z,5.70
2022-08-10T01:33:00.261Z,6.70
2022-08-10T01:35:38.410Z,5.80
2022-08-10T01:38:18.127Z,5.80
2022-08-10T01:40:52.421Z,5.30
2022-08-10T01:43:25.542Z,4.60
2022-08-10T01:46:00.162Z,5.10
2022-08-10T01:51:22.092Z,5.60
2022-08-10T01:53:57.936Z,5.20
2022-08-10T01:56:32.202Z,5.80
2022-08-10T02:01:38.510Z,5.90
2022-08-10T02:04:10.106Z,6.00
2022-08-10T02:06:53.631Z,5.80
2022-08-10T02:09:28.147Z,5.40
2022-08-10T02:12:08.181Z,5.20
2022-08-10T02:14:43.623Z,4.80
2022-08-10T02:17:57.310Z,4.80
2022-08-10T02:20:17.734Z,5.20
2022-08-10T02:23:03.344Z,4.50
2022-08-10T02:25:41.643Z,4.60
2022-08-10T02:28:30.404Z,4.20
2022-08-10T02:31:11.586Z,5.20
2022-08-10T02:33:56.298Z,5.80
2022-08-10T02:39:01.130Z,2.30
2022-08-10T02:45:14.851Z,3.10
2022-08-10T02:45:19.058Z,3.60
2022-08-10T02:47:50.767Z,3.10
2022-08-10T02:50:40.247Z,3.40
2022-08-10T02:53:54.632Z,3.50
2022-08-10T02:56:15.275Z,3.40
2022-08-10T02:58:46.914Z,3.30
2022-08-10T03:01:21.000Z,2.90
2022-08-10T03:03:58.973Z,2.70
2022-08-10T03:06:35.131Z,2.90
2022-08-10T03:09:10.334Z,2.70
2022-08-10T03:12:35.150Z,3.20
2022-08-10T03:14:32.111Z,3.10
2022-08-10T03:17:02.812Z,2.90
2022-08-10T03:20:34.894Z,2.60
2022-08-10T03:22:26.075Z,2.50
2022-08-10T03:24:56.201Z,2.50
2022-08-10T03:27:24.786Z,2.80
2022-08-10T03:30:28.266Z,3.10
2022-08-10T03:32:46.971Z,3.00
2022-08-10T03:35:16.065Z,2.60
2022-08-10T03:37:45.917Z,2.20
2022-08-10T03:40:14.829Z,2.60
2022-08-10T03:42:47.408Z,2.40
2022-08-10T03:45:17.884Z,2.30
2022-08-10T03:47:48.711Z,2.50
2022-08-10T03:50:45.335Z,2.40
2022-08-10T03:53:08.346Z,2.20
2022-08-10T03:56:29.237Z,2.50
2022-08-10T03:58:42.604Z,2.60
2022-08-10T04:01:13.282Z,2.10
2022-08-10T04:03:43.054Z,2.50
2022-08-10T04:06:12.454Z,2.20
2022-08-10T04:08:44.986Z,2.30
2022-08-10T04:11:13.654Z,2.20
2022-08-10T04:13:42.641Z,2.60
2022-08-10T04:16:11.089Z,2.60
2022-08-10T04:18:39.615Z,2.30
2022-08-10T04:21:13.068Z,2.80
2022-08-10T04:23:44.665Z,2.60
2022-08-10T04:26:14.944Z,2.60
2022-08-10T04:28:44.318Z,2.50
2022-08-10T04:31:17.888Z,2.50
2022-08-10T04:33:51.327Z,2.70
2022-08-10T04:36:22.438Z,2.70
2022-08-10T04:38:54.199Z,2.50
2022-08-10T04:41:23.132Z,2.60
2022-08-10T04:43:53.318Z,3.70
2022-08-10T04:46:56.256Z,1.90
2022-08-10T04:49:40.332Z,2.40
2022-08-10T04:52:00.954Z,2.10
2022-08-10T04:54:30.408Z,2.20
2022-08-10T04:56:59.474Z,2.30
2022-08-10T04:59:28.874Z,2.40
2022-08-10T05:02:22.267Z,2.90
2022-08-10T05:04:46.454Z,2.60
2022-08-10T05:07:18.336Z,2.60
2022-08-10T05:10:04.531Z,2.60
2022-08-10T05:12:40.802Z,2.60
2022-08-10T05:15:15.088Z,3.00
2022-08-10T05:18:03.347Z,3.30
2022-08-10T05:20:32.288Z,3.20
2022-08-10T05:23:00.599Z,3.20
2022-08-10T05:25:29.379Z,2.80
2022-08-10T05:28:06.114Z,2.90
2022-08-10T05:30:35.066Z,2.50
2022-08-10T05:33:08.542Z,2.70
2022-08-10T05:35:55.380Z,3.70
2022-08-10T05:38:30.361Z,4.10
2022-08-10T05:40:59.920Z,3.50
2022-08-10T05:43:28.533Z,3.10
2022-08-10T05:46:19.567Z,3.10
2022-08-10T05:48:59.651Z,2.80
2022-08-10T05:51:30.457Z,2.90
2022-08-10T05:54:06.745Z,2.80
2022-08-10T05:56:54.908Z,3.00
2022-08-10T06:00:33.233Z,2.70
2022-08-10T06:02:41.004Z,2.90
2022-08-10T06:05:16.070Z,2.90
2022-08-10T06:07:54.551Z,3.10
2022-08-10T06:10:28.614Z,3.30
2022-08-10T06:13:30.906Z,3.40
2022-08-10T06:16:08.948Z,3.10
2022-08-10T06:18:37.588Z,3.60
2022-08-10T06:21:09.938Z,3.30
2022-08-10T06:23:39.803Z,3.70
2022-08-10T06:26:14.141Z,3.60
2022-08-10T06:29:10.858Z,3.40
2022-08-10T06:31:48.925Z,3.40
2022-08-10T06:34:49.848Z,3.20
2022-08-10T06:37:21.006Z,3.00
2022-08-10T06:39:51.933Z,3.20
2022-08-10T06:42:33.092Z,3.40
2022-08-10T06:45:08.183Z,3.80
2022-08-10T06:48:00.545Z,3.30
2022-08-10T06:50:58.005Z,3.20
2022-08-10T06:53:53.175Z,3.20
2022-08-10T06:56:36.536Z,3.30
2022-08-10T06:59:22.727Z,3.70
2022-08-10T07:01:59.528Z,3.40
2022-08-10T07:04:35.687Z,3.40
2022-08-10T07:07:07.875Z,3.50
2022-08-10T07:09:41.605Z,3.30
2022-08-10T07:12:16.463Z,15.20
2022-08-10T07:14:46.251Z,4.40
2022-08-10T07:17:19.373Z,4.30
2022-08-10T07:19:52.746Z,4.50
2022-08-10T07:23:01.255Z,4.00
2022-08-10T07:25:27.607Z,3.50
2022-08-10T07:28:01.848Z,3.70
2022-08-10T07:30:36.268Z,3.70
2022-08-10T07:33:06.950Z,4.20
2022-08-10T07:35:43.176Z,3.90
2022-08-10T07:38:19.487Z,3.80
2022-08-10T07:40:52.149Z,3.50
2022-08-10T07:43:25.821Z,3.50
2022-08-10T07:45:57.260Z,3.80
2022-08-10T07:48:29.078Z,3.90
2022-08-10T07:51:00.508Z,3.80
2022-08-10T07:53:36.226Z,4.00
2022-08-10T07:56:16.864Z,3.70
2022-08-10T07:59:06.537Z,3.70
2022-08-10T08:01:43.236Z,3.60
2022-08-10T08:04:15.360Z,3.20
2022-08-10T08:06:45.742Z,3.40
2022-08-10T08:09:14.252Z,3.70
2022-08-10T08:11:44.922Z,3.40
2022-08-10T08:14:15.835Z,3.60
2022-08-10T08:16:52.177Z,4.30
2022-08-10T08:19:28.015Z,3.70
2022-08-10T08:24:04.649Z,3.40
2022-08-10T08:24:57.794Z,3.30
2022-08-10T08:27:29.752Z,3.90
2022-08-10T08:30:00.188Z,3.20
2022-08-10T08:32:33.853Z,3.40
2022-08-10T08:35:08.560Z,3.20
2022-08-10T08:38:32.122Z,3.20
2022-08-10T08:40:38.333Z,3.30
2022-08-10T08:43:27.294Z,3.20
2022-08-10T08:46:07.580Z,3.10
2022-08-10T08:48:44.114Z,3.00
2022-08-10T08:52:09.293Z,2.70
2022-08-10T08:54:51.432Z,3.00
2022-08-10T08:58:04.512Z,2.80
2022-08-10T09:00:57.771Z,2.90
2022-08-10T09:03:48.009Z,2.50
2022-08-10T09:06:31.858Z,2.40
2022-08-10T09:09:20.251Z,3.00
2022-08-10T09:12:13.984Z,2.70
2022-08-10T09:15:06.176Z,2.70
2022-08-10T09:17:56.510Z,2.80
2022-08-10T09:20:45.827Z,2.70
2022-08-10T09:24:01.546Z,2.30
2022-08-10T09:26:45.917Z,2.20
2022-08-10T09:29:31.742Z,2.80
2022-08-10T09:36:17.487Z,2.30
2022-08-10T09:36:22.796Z,2.40
2022-08-10T09:38:18.634Z,2.40
2022-08-10T09:40:59.273Z,2.60
2022-08-10T09:43:47.005Z,2.70
2022-08-10T09:46:54.419Z,2.40
2022-08-10T09:50:04.389Z,2.70
2022-08-10T09:53:27.824Z,2.40
2022-08-10T09:56:29.085Z,2.40
2022-08-10T10:00:01.577Z,2.50
2022-08-10T10:02:30.019Z,2.40
2022-08-10T10:05:14.900Z,2.50
2022-08-10T10:07:51.873Z,2.40
2022-08-10T10:10:27.408Z,2.30
2022-08-10T10:13:01.650Z,2.60
2022-08-10T10:15:43.924Z,2.50
2022-08-10T10:18:23.237Z,2.10
2022-08-10T10:21:03.018Z,2.60
2022-08-10T10:24:19.782Z,2.10
2022-08-10T10:27:16.377Z,2.20
2022-08-10T10:30:00.992Z,1.90
2022-08-10T10:32:37.227Z,1.90
2022-08-10T10:35:09.428Z,2.10
2022-08-10T10:38:01.755Z,2.20
2022-08-10T10:40:59.684Z,2.10
2022-08-10T10:43:44.303Z,2.10
2022-08-10T10:48:54.771Z,2.20
2022-08-10T10:51:28.038Z,1.60
2022-08-10T10:54:30.063Z,1.80
2022-08-10T10:57:19.587Z,2.00
2022-08-10T10:59:57.732Z,1.70
2022-08-10T11:02:36.703Z,1.90
2022-08-10T11:05:32.086Z,1.80
2022-08-10T11:08:08.480Z,1.70
2022-08-10T11:10:49.637Z,2.50
2022-08-10T11:14:24.456Z,2.10
2022-08-10T11:16:59.901Z,1.90
2022-08-10T11:20:14.415Z,2.60
2022-08-10T11:22:43.358Z,1.60
2022-08-10T11:25:21.033Z,1.60
2022-08-10T11:28:07.818Z,2.00
2022-08-10T11:30:40.170Z,1.30
2022-08-10T11:34:03.799Z,1.20
2022-08-10T11:36:48.311Z,1.40
2022-08-10T11:39:37.282Z,1.10
2022-08-10T11:42:40.057Z,1.40
2022-08-10T11:45:52.493Z,1.60
2022-08-10T11:49:02.121Z,1.50
2022-08-10T11:51:57.798Z,1.30
2022-08-10T11:54:50.905Z,1.40
2022-08-10T11:57:21.181Z,1.40
2022-08-10T11:59:59.509Z,1.30
2022-08-10T12:02:40.954Z,1.20
2022-08-10T12:05:16.603Z,1.00
2022-08-10T12:08:54.905Z,1.30
2022-08-10T12:10:41.103Z,1.40
2022-08-10T12:13:24.558Z,1.40
2022-08-10T12:16:15.187Z,1.30
2022-08-10T12:19:03.905Z,1.60
2022-08-10T12:21:45.774Z,1.60
2022-08-10T12:24:31.706Z,1.60
2022-08-10T12:27:13.015Z,1.30
2022-08-10T12:29:55.645Z,1.10
2022-08-10T12:32:54.050Z,1.40
2022-08-10T12:35:56.149Z,1.00
2022-08-10T12:38:48.757Z,1.40
2022-08-10T12:41:41.562Z,1.20
2022-08-10T12:44:18.360Z,1.10
2022-08-10T12:47:10.486Z,1.10
2022-08-10T12:50:29.241Z,0.90
2022-08-10T12:53:04.893Z,1.00
2022-08-10T12:55:39.275Z,1.00
2022-08-10T12:59:00.482Z,0.90
2022-08-10T13:01:16.253Z,1.10
2022-08-10T13:04:20.781Z,0.90
2022-08-10T13:06:46.448Z,1.20
2022-08-10T13:09:21.609Z,1.20
2022-08-10T13:12:39.233Z,1.90
2022-08-10T13:15:44.887Z,1.20
2022-08-10T13:18:00.277Z,1.30
2022-08-10T13:20:38.227Z,1.00
2022-08-10T13:23:17.937Z,1.10
2022-08-10T13:25:49.825Z,1.20
2022-08-10T13:28:49.601Z,1.00
2022-08-10T13:32:04.021Z,1.10
2022-08-10T13:34:40.044Z,1.20
2022-08-10T13:37:17.730Z,1.20
2022-08-10T13:39:57.808Z,1.20
2022-08-10T13:42:36.013Z,2.60
2022-08-10T13:45:11.114Z,1.30
2022-08-10T13:47:48.360Z,1.10
2022-08-10T13:50:33.595Z,1.20
2022-08-10T13:53:15.752Z,1.20
2022-08-10T13:55:55.368Z,1.20
2022-08-10T13:58:33.927Z,1.10
2022-08-10T14:01:12.841Z,1.80
2022-08-10T14:03:45.073Z,1.00
2022-08-10T14:06:20.887Z,1.00
2022-08-10T14:08:54.056Z,1.20
2022-08-10T14:11:26.252Z,1.20
2022-08-10T14:14:15.473Z,1.30
2022-08-10T14:16:48.532Z,1.40
2022-08-10T14:19:21.785Z,1.60
2022-08-10T14:21:51.418Z,1.50
2022-08-10T14:24:34.624Z,1.40
2022-08-10T14:27:07.211Z,1.30
2022-08-10T14:29:49.558Z,1.30
2022-08-10T14:32:23.783Z,1.30
2022-08-10T14:36:15.251Z,1.20
2022-08-10T14:37:50.291Z,1.20
2022-08-10T14:40:22.434Z,1.10
2022-08-10T14:43:02.131Z,1.10
2022-08-10T14:45:37.582Z,1.10
2022-08-10T14:48:21.290Z,1.00
2022-08-10T14:50:58.397Z,1.30
2022-08-10T14:53:35.350Z,1.40
2022-08-10T14:56:15.882Z,3.60
2022-08-10T14:59:05.666Z,3.60
2022-08-10T15:02:00.000Z,1.30
2022-08-10T15:04:29.321Z,1.50
2022-08-10T15:07:24.925Z,1.60
2022-08-10T15:10:01.653Z,1.90
2022-08-10T15:12:36.430Z,1.40
2022-08-10T15:15:08.648Z,1.30
2022-08-10T15:17:43.326Z,1.30
2022-08-10T15:20:21.211Z,1.50
2022-08-10T15:22:54.520Z,1.40
2022-08-10T15:28:08.261Z,1.30
2022-08-10T15:30:43.390Z,1.40
2022-08-10T15:33:57.709Z,1.40
2022-08-10T15:36:46.830Z,1.30
2022-08-10T15:40:20.640Z,1.30
2022-08-10T15:42:27.211Z,1.50
2022-08-10T15:44:55.744Z,1.30
2022-08-10T15:47:46.271Z,1.40
2022-08-10T15:50:39.738Z,1.30
2022-08-10T15:53:15.645Z,1.60
2022-08-10T15:55:50.330Z,1.30
2022-08-10T15:58:37.600Z,1.50
2022-08-10T16:02:04.111Z,1.60
2022-08-10T16:04:09.037Z,1.50
2022-08-10T16:06:45.074Z,1.30
2022-08-10T16:10:24.277Z,1.50
2022-08-10T16:12:29.444Z,1.50
2022-08-10T16:15:04.485Z,1.50
2022-08-10T16:17:54.540Z,1.60
2022-08-10T16:20:33.714Z,1.50
2022-08-10T16:23:32.059Z,1.50
2022-08-10T16:26:13.524Z,1.20
2022-08-10T16:28:56.943Z,1.70
2022-08-10T16:31:30.859Z,1.70
2022-08-10T16:34:04.701Z,1.80
2022-08-10T16:36:48.688Z,1.70
2022-08-10T16:39:59.892Z,1.50
2022-08-10T16:42:27.922Z,1.60
2022-08-10T16:45:17.871Z,1.60
2022-08-10T16:47:49.561Z,1.50
2022-08-10T16:50:32.923Z,1.50
2022-08-10T16:53:03.565Z,1.50
2022-08-10T16:55:48.791Z,1.70
2022-08-10T16:58:39.680Z,1.80
2022-08-10T17:01:13.345Z,1.60
2022-08-10T17:04:07.415Z,1.50
2022-08-10T17:06:55.885Z,1.40
2022-08-10T17:09:32.158Z,1.60
2022-08-10T17:12:10.745Z,1.70
2022-08-10T17:14:41.715Z,1.50
2022-08-10T17:17:26.513Z,1.50
2022-08-10T17:22:54.895Z,1.60
2022-08-10T17:25:48.538Z,2.60
2022-08-10T17:28:35.369Z,2.00
2022-08-10T17:31:39.711Z,1.70
2022-08-10T17:34:15.760Z,2.20
2022-08-10T17:36:49.706Z,2.30
2022-08-10T17:39:22.772Z,2.00
2022-08-10T17:41:55.303Z,1.90
2022-08-10T17:44:26.643Z,1.80
2022-08-10T17:46:56.369Z,2.00
2022-08-10T17:49:27.776Z,1.70
2022-08-10T17:51:59.437Z,1.90
2022-08-10T17:54:38.866Z,2.20
2022-08-10T17:57:12.839Z,2.20
2022-08-10T17:59:44.574Z,2.30
2022-08-10T18:02:23.552Z,2.60
2022-08-10T18:04:55.219Z,3.40
2022-08-10T18:07:39.231Z,3.90
2022-08-10T18:10:11.279Z,3.40
2022-08-10T18:12:44.917Z,2.60
2022-08-10T18:15:18.424Z,2.80
2022-08-10T18:17:52.500Z,2.20
2022-08-10T18:20:27.760Z,2.40
2022-08-10T18:22:59.370Z,2.30
2022-08-10T18:25:33.781Z,2.20
2022-08-10T18:28:06.008Z,2.40
2022-08-10T18:30:45.656Z,2.20
2022-08-10T18:33:16.609Z,2.20
2022-08-10T18:35:46.729Z,2.50
2022-08-10T18:38:17.656Z,2.20
2022-08-10T18:40:59.528Z,2.60
2022-08-10T18:44:07.323Z,4.10
2022-08-10T18:46:28.712Z,3.00
2022-08-10T18:49:06.617Z,2.80
2022-08-10T18:51:46.680Z,3.10
2022-08-10T18:54:39.028Z,3.10
2022-08-10T18:57:36.353Z,2.90
2022-08-10T19:03:16.606Z,3.70
2022-08-10T19:06:07.979Z,7.70
2022-08-10T19:08:58.248Z,4.80
2022-08-10T19:11:49.010Z,3.10
2022-08-10T19:14:36.389Z,3.40
2022-08-10T19:17:12.068Z,2.80
2022-08-10T19:19:41.600Z,3.30
2022-08-10T19:22:37.268Z,2.90
2022-08-10T19:25:10.178Z,2.80
2022-08-10T19:27:52.754Z,3.10
2022-08-10T19:30:37.700Z,8.00
2022-08-10T19:33:16.632Z,3.30
2022-08-10T19:36:06.334Z,3.20
2022-08-10T19:38:59.211Z,3.10
2022-08-10T19:41:44.796Z,3.20
2022-08-10T19:44:48.782Z,4.10
2022-08-10T19:47:36.350Z,4.30
2022-08-10T19:50:13.691Z,4.20
2022-08-10T19:53:03.801Z,4.20
2022-08-10T19:55:43.448Z,3.80
2022-08-10T19:58:34.653Z,3.50
2022-08-10T20:01:07.114Z,3.40
2022-08-10T20:03:41.015Z,2.70
2022-08-10T20:06:21.002Z,2.90
2022-08-10T20:09:05.755Z,2.70
2022-08-10T20:12:08.192Z,2.60
2022-08-10T20:14:50.521Z,2.70
2022-08-10T20:17:52.112Z,2.50
2022-08-10T20:21:13.154Z,2.80
2022-08-10T20:23:53.903Z,2.30
2022-08-10T20:26:29.536Z,2.50
2022-08-10T20:29:10.104Z,3.00
2022-08-10T20:31:57.022Z,2.90
2022-08-10T20:34:39.070Z,2.80
2022-08-10T20:37:27.247Z,2.90
2022-08-10T20:40:18.758Z,2.90
2022-08-10T20:43:29.846Z,2.60
2022-08-10T20:46:09.269Z,2.70
2022-08-10T20:48:55.534Z,2.70
2022-08-10T20:51:58.810Z,2.90
2022-08-10T20:54:22.729Z,2.60
2022-08-10T20:57:56.511Z,2.70
2022-08-10T21:00:17.128Z,2.90
2022-08-10T21:02:51.584Z,2.80
2022-08-10T21:05:43.835Z,2.90
2022-08-10T21:08:12.159Z,2.40
2022-08-10T21:11:02.445Z,2.80
2022-08-10T21:13:49.714Z,2.50
2022-08-10T21:16:55.335Z,2.50
2022-08-10T21:19:55.812Z,2.80
2022-08-10T21:22:37.810Z,2.80
2022-08-10T21:25:30.029Z,2.50
2022-08-10T21:27:58.191Z,2.80
2022-08-10T21:30:42.125Z,3.10
2022-08-10T21:33:36.266Z,2.30
2022-08-10T21:36:18.559Z,2.10
2022-08-10T21:39:03.716Z,2.40
2022-08-10T21:42:22.290Z,2.50
2022-08-10T21:45:59.431Z,2.70
2022-08-10T21:49:14.524Z,2.50
2022-08-10T21:52:17.000Z,2.60
2022-08-10T21:55:13.609Z,2.80
2022-08-10T21:58:23.291Z,2.60
2022-08-10T22:01:39.440Z,2.60
2022-08-10T22:04:27.136Z,2.50
2022-08-10T22:07:16.799Z,2.30
2022-08-10T22:10:09.106Z,2.70
2022-08-10T22:13:01.032Z,2.50
2022-08-10T22:16:10.163Z,2.60
2022-08-10T22:19:03.938Z,2.50
2022-08-10T22:22:27.003Z,2.30
2022-08-10T22:25:41.313Z,2.30
2022-08-10T22:28:37.033Z,2.40
2022-08-10T22:31:36.675Z,2.40
2022-08-10T22:34:39.518Z,2.40
2022-08-10T22:37:48.283Z,2.20
2022-08-10T22:40:41.591Z,2.00
2022-08-10T22:43:40.540Z,2.40
2022-08-10T22:46:37.019Z,2.60
2022-08-10T22:49:06.800Z,2.50
2022-08-10T22:52:07.635Z,1.80
2022-08-10T22:55:07.993Z,2.10
2022-08-10T22:58:05.021Z,1.60
2022-08-10T23:00:34.323Z,2.10
2022-08-10T23:03:21.852Z,2.40
2022-08-10T23:05:55.207Z,2.10
2022-08-10T23:08:53.119Z,2.30
2022-08-10T23:11:35.789Z,2.30
2022-08-10T23:14:08.150Z,2.60
2022-08-10T23:17:09.260Z,2.60
2022-08-10T23:19:47.981Z,2.30
2022-08-10T23:22:21.072Z,2.30
2022-08-10T23:25:07.510Z,2.30
2022-08-10T23:27:40.626Z,2.10
2022-08-10T23:30:17.585Z,1.80
2022-08-10T23:32:59.338Z,2.40
2022-08-10T23:36:30.368Z,2.30
2022-08-10T23:38:23.160Z,2.50
2022-08-10T23:40:55.344Z,2.20
2022-08-10T23:44:00.398Z,2.70
2022-08-10T23:46:24.349Z,2.60
2022-08-10T23:48:56.519Z,2.10
2022-08-10T23:51:54.484Z,2.20
2022-08-10T23:54:25.223Z,2.40
2022-08-10T23:57:00.731Z,2.70
2022-08-10T23:59:32.784Z,2.50
